sensor_id;sensor_type;location;lat;lon;timestamp;P1;durP1;ratioP1;P2;durP2;ratioP2
76846;SDS011;65813;49.546;8.644;2023-02-23T05:19:17;43.58;;;19.13;;
76846;SDS011;65813;49.546;8.644;2023-02-23T05:23:18;46.97;;;20.40;;
76846;SDS011;65813;49.546;8.644;2023-02-23T05:27:19;44.17;;;20.73;;
76846;SDS011;65813;49.546;8.644;2023-02-23T05:31:19;37.83;;;17.42;;
76846;SDS011;65813;49.546;8.644;2023-02-23T05:35:20;39.93;;;19.83;;
76846;SDS011;65813;49.546;8.644;2023-02-23T05:39:20;40.67;;;19.53;;
76846;SDS011;65813;49.546;8.644;2023-02-23T05:43:21;44.53;;;18.80;;
76846;SDS011;65813;49.546;8.644;2023-02-23T05:47:21;36.17;;;18.93;;
76846;SDS011;65813;49.546;8.644;2023-02-23T05:51:22;40.03;;;19.83;;
76846;SDS011;65813;49.546;8.644;2023-02-23T05:55:22;43.15;;;19.58;;
76846;SDS011;65813;49.546;8.644;2023-02-23T05:59:23;47.17;;;20.83;;
76846;SDS011;65813;49.546;8.644;2023-02-23T06:03:24;35.72;;;17.38;;
76846;SDS011;65813;49.546;8.644;2023-02-23T06:07:24;41.15;;;20.15;;
76846;SDS011;65813;49.546;8.644;2023-02-23T06:11:25;43.33;;;20.83;;
76846;SDS011;65813;49.546;8.644;2023-02-23T06:15:25;44.17;;;21.53;;
76846;SDS011;65813;49.546;8.644;2023-02-23T06:19:25;45.70;;;21.47;;
76846;SDS011;65813;49.546;8.644;2023-02-23T06:23:29;38.95;;;19.75;;
76846;SDS011;65813;49.546;8.644;2023-02-23T06:27:31;42.92;;;19.98;;
76846;SDS011;65813;49.546;8.644;2023-02-23T06:31:31;43.20;;;19.97;;
76846;SDS011;65813;49.546;8.644;2023-02-23T06:35:32;41.70;;;21.77;;
76846;SDS011;65813;49.546;8.644;2023-02-23T06:39:33;42.92;;;19.75;;
76846;SDS011;65813;49.546;8.644;2023-02-23T06:43:33;43.43;;;19.13;;
76846;SDS011;65813;49.546;8.644;2023-02-23T06:47:34;39.28;;;19.40;;
76846;SDS011;65813;49.546;8.644;2023-02-23T06:51:34;44.13;;;20.00;;
76846;SDS011;65813;49.546;8.644;2023-02-23T06:55:34;42.27;;;19.13;;
76846;SDS011;65813;49.546;8.644;2023-02-23T06:59:35;42.47;;;19.80;;
76846;SDS011;65813;49.546;8.644;2023-02-23T07:03:35;42.35;;;19.45;;
76846;SDS011;65813;49.546;8.644;2023-02-23T07:07:36;39.20;;;19.00;;
76846;SDS011;65813;49.546;8.644;2023-02-23T07:11:36;38.40;;;18.52;;
76846;SDS011;65813;49.546;8.644;2023-02-23T07:15:37;40.17;;;19.20;;
76846;SDS011;65813;49.546;8.644;2023-02-23T07:19:39;40.17;;;18.42;;
76846;SDS011;65813;49.546;8.644;2023-02-23T07:23:40;43.22;;;19.20;;
76846;SDS011;65813;49.546;8.644;2023-02-23T07:27:40;47.27;;;20.73;;
76846;SDS011;65813;49.546;8.644;2023-02-23T07:31:41;40.92;;;20.25;;
76846;SDS011;65813;49.546;8.644;2023-02-23T07:35:41;37.77;;;18.17;;
76846;SDS011;65813;49.546;8.644;2023-02-23T07:39:42;42.22;;;20.15;;
76846;SDS011;65813;49.546;8.644;2023-02-23T07:43:42;38.10;;;17.83;;
76846;SDS011;65813;49.546;8.644;2023-02-23T07:47:43;35.23;;;18.07;;
76846;SDS011;65813;49.546;8.644;2023-02-23T07:51:43;41.88;;;18.15;;
76846;SDS011;65813;49.546;8.644;2023-02-23T07:55:44;38.13;;;18.50;;
76846;SDS011;65813;49.546;8.644;2023-02-23T07:59:45;42.77;;;19.33;;
76846;SDS011;65813;49.546;8.644;2023-02-23T08:03:46;38.08;;;17.38;;
76846;SDS011;65813;49.546;8.644;2023-02-23T08:07:48;38.05;;;16.38;;
76846;SDS011;65813;49.546;8.644;2023-02-23T08:11:49;35.30;;;16.15;;
76846;SDS011;65813;49.546;8.644;2023-02-23T08:15:49;35.17;;;17.03;;
76846;SDS011;65813;49.546;8.644;2023-02-23T08:19:49;34.77;;;17.63;;
76846;SDS011;65813;49.546;8.644;2023-02-23T08:23:50;34.57;;;15.73;;
76846;SDS011;65813;49.546;8.644;2023-02-23T08:27:50;36.42;;;17.48;;
76846;SDS011;65813;49.546;8.644;2023-02-23T08:31:51;33.72;;;17.45;;
76846;SDS011;65813;49.546;8.644;2023-02-23T08:35:51;35.40;;;17.30;;
76846;SDS011;65813;49.546;8.644;2023-02-23T08:39:52;39.28;;;17.92;;
76846;SDS011;65813;49.546;8.644;2023-02-23T08:43:52;43.67;;;20.87;;
76846;SDS011;65813;49.546;8.644;2023-02-23T08:47:53;37.10;;;18.67;;
76846;SDS011;65813;49.546;8.644;2023-02-23T08:51:54;37.55;;;17.85;;
76846;SDS011;65813;49.546;8.644;2023-02-23T08:55:55;32.63;;;18.00;;
76846;SDS011;65813;49.546;8.644;2023-02-23T09:00:00;34.40;;;17.70;;
76846;SDS011;65813;49.546;8.644;2023-02-23T09:04:01;36.83;;;16.27;;
76846;SDS011;65813;49.546;8.644;2023-02-23T09:08:01;37.17;;;18.15;;
76846;SDS011;65813;49.546;8.644;2023-02-23T09:12:02;35.45;;;18.08;;
76846;SDS011;65813;49.546;8.644;2023-02-23T09:16:03;31.17;;;16.80;;
76846;SDS011;65813;49.546;8.644;2023-02-23T09:20:04;35.15;;;16.50;;
76846;SDS011;65813;49.546;8.644;2023-02-23T09:24:05;34.88;;;17.67;;
76846;SDS011;65813;49.546;8.644;2023-02-23T09:28:06;35.55;;;16.88;;
76846;SDS011;65813;49.546;8.644;2023-02-23T09:32:06;30.93;;;15.87;;
76846;SDS011;65813;49.546;8.644;2023-02-23T09:36:25;31.77;;;15.98;;
76846;SDS011;65813;49.546;8.644;2023-02-23T09:40:30;31.40;;;16.77;;
76846;SDS011;65813;49.546;8.644;2023-02-23T09:45:00;28.88;;;16.23;;
76846;SDS011;65813;49.546;8.644;2023-02-23T09:49:02;30.80;;;15.82;;
76846;SDS011;65813;49.546;8.644;2023-02-23T09:57:32;31.23;;;15.30;;
76846;SDS011;65813;49.546;8.644;2023-02-23T10:05:59;31.15;;;14.80;;
76846;SDS011;65813;49.546;8.644;2023-02-23T10:22:49;26.02;;;12.70;;
76846;SDS011;65813;49.546;8.644;2023-02-23T10:26:58;30.80;;;13.82;;
76846;SDS011;65813;49.546;8.644;2023-02-23T10:31:03;28.13;;;13.45;;
76846;SDS011;65813;49.546;8.644;2023-02-23T10:35:18;24.50;;;12.77;;
76846;SDS011;65813;49.546;8.644;2023-02-23T10:39:20;24.55;;;12.57;;
76846;SDS011;65813;49.546;8.644;2023-02-23T10:43:20;23.83;;;12.30;;
76846;SDS011;65813;49.546;8.644;2023-02-23T10:47:21;23.57;;;11.67;;
76846;SDS011;65813;49.546;8.644;2023-02-23T10:55:29;28.85;;;14.45;;
76846;SDS011;65813;49.546;8.644;2023-02-23T10:59:31;29.95;;;14.38;;
76846;SDS011;65813;49.546;8.644;2023-02-23T11:03:34;32.33;;;15.65;;
76846;SDS011;65813;49.546;8.644;2023-02-23T11:07:38;31.25;;;14.52;;
76846;SDS011;65813;49.546;8.644;2023-02-23T11:11:39;27.80;;;13.82;;
76846;SDS011;65813;49.546;8.644;2023-02-23T11:15:39;22.47;;;11.70;;
76846;SDS011;65813;49.546;8.644;2023-02-23T11:19:43;23.35;;;11.25;;
76846;SDS011;65813;49.546;8.644;2023-02-23T11:23:43;24.00;;;12.47;;
76846;SDS011;65813;49.546;8.644;2023-02-23T11:27:44;18.15;;;9.95;;
76846;SDS011;65813;49.546;8.644;2023-02-23T11:31:51;18.42;;;8.98;;
76846;SDS011;65813;49.546;8.644;2023-02-23T11:35:58;21.60;;;10.93;;
76846;SDS011;65813;49.546;8.644;2023-02-23T11:40:23;18.00;;;8.70;;
76846;SDS011;65813;49.546;8.644;2023-02-23T11:44:32;14.43;;;7.47;;
76846;SDS011;65813;49.546;8.644;2023-02-23T11:48:39;16.23;;;7.50;;
76846;SDS011;65813;49.546;8.644;2023-02-23T11:52:50;14.75;;;7.65;;
76846;SDS011;65813;49.546;8.644;2023-02-23T11:56:55;13.35;;;6.88;;
76846;SDS011;65813;49.546;8.644;2023-02-23T12:01:00;12.70;;;6.50;;
76846;SDS011;65813;49.546;8.644;2023-02-23T12:05:18;17.13;;;8.60;;
76846;SDS011;65813;49.546;8.644;2023-02-23T12:09:23;14.73;;;6.78;;
76846;SDS011;65813;49.546;8.644;2023-02-23T12:13:34;12.15;;;6.70;;
76846;SDS011;65813;49.546;8.644;2023-02-23T12:17:41;12.43;;;6.53;;
76846;SDS011;65813;49.546;8.644;2023-02-23T12:21:54;13.98;;;6.95;;
76846;SDS011;65813;49.546;8.644;2023-02-23T12:26:08;14.52;;;7.10;;
76846;SDS011;65813;49.546;8.644;2023-02-23T12:30:17;15.45;;;7.63;;
76846;SDS011;65813;49.546;8.644;2023-02-23T12:34:34;16.13;;;7.75;;
76846;SDS011;65813;49.546;8.644;2023-02-23T12:39:43;14.95;;;7.78;;
76846;SDS011;65813;49.546;8.644;2023-02-23T12:51:44;13.95;;;7.70;;
76846;SDS011;65813;49.546;8.644;2023-02-23T13:13:03;13.77;;;6.18;;
76846;SDS011;65813;49.546;8.644;2023-02-23T13:17:32;14.38;;;6.22;;
76846;SDS011;65813;49.546;8.644;2023-02-23T13:22:05;11.25;;;6.00;;
76846;SDS011;65813;49.546;8.644;2023-02-23T13:30:12;12.52;;;6.45;;
76846;SDS011;65813;49.546;8.644;2023-02-23T13:34:25;11.60;;;6.25;;
76846;SDS011;65813;49.546;8.644;2023-02-23T13:47:05;10.70;;;5.80;;
76846;SDS011;65813;49.546;8.644;2023-02-23T13:55:46;9.75;;;5.57;;
76846;SDS011;65813;49.546;8.644;2023-02-23T13:59:50;10.68;;;6.07;;
76846;SDS011;65813;49.546;8.644;2023-02-23T14:03:58;10.43;;;5.85;;
76846;SDS011;65813;49.546;8.644;2023-02-23T14:08:02;9.75;;;5.55;;
76846;SDS011;65813;49.546;8.644;2023-02-23T14:12:13;9.90;;;5.55;;
76846;SDS011;65813;49.546;8.644;2023-02-23T14:16:21;9.82;;;5.40;;
76846;SDS011;65813;49.546;8.644;2023-02-23T14:20:35;12.57;;;4.83;;
76846;SDS011;65813;49.546;8.644;2023-02-23T14:24:43;9.02;;;3.70;;
76846;SDS011;65813;49.546;8.644;2023-02-23T14:28:47;8.77;;;3.60;;
76846;SDS011;65813;49.546;8.644;2023-02-23T14:37:41;9.95;;;3.60;;
76846;SDS011;65813;49.546;8.644;2023-02-23T14:41:58;7.47;;;3.08;;
76846;SDS011;65813;49.546;8.644;2023-02-23T14:46:07;7.25;;;3.30;;
76846;SDS011;65813;49.546;8.644;2023-02-23T14:50:13;6.30;;;3.08;;
76846;SDS011;65813;49.546;8.644;2023-02-23T14:58:25;6.93;;;3.70;;
76846;SDS011;65813;49.546;8.644;2023-02-23T15:02:28;7.20;;;3.65;;
76846;SDS011;65813;49.546;8.644;2023-02-23T15:06:29;8.13;;;3.92;;
76846;SDS011;65813;49.546;8.644;2023-02-23T15:10:37;7.47;;;3.72;;
76846;SDS011;65813;49.546;8.644;2023-02-23T15:14:40;8.15;;;3.60;;
76846;SDS011;65813;49.546;8.644;2023-02-23T15:18:42;7.55;;;3.78;;
76846;SDS011;65813;49.546;8.644;2023-02-23T15:22:47;6.95;;;3.30;;
76846;SDS011;65813;49.546;8.644;2023-02-23T15:26:53;7.43;;;3.40;;
76846;SDS011;65813;49.546;8.644;2023-02-23T15:30:58;6.88;;;3.83;;
76846;SDS011;65813;49.546;8.644;2023-02-23T15:34:59;6.15;;;3.05;;
76846;SDS011;65813;49.546;8.644;2023-02-23T15:39:03;5.85;;;2.97;;
76846;SDS011;65813;49.546;8.644;2023-02-23T15:43:06;8.00;;;2.95;;
76846;SDS011;65813;49.546;8.644;2023-02-23T15:47:14;5.20;;;3.03;;
76846;SDS011;65813;49.546;8.644;2023-02-23T15:51:42;8.00;;;3.42;;
76846;SDS011;65813;49.546;8.644;2023-02-23T15:55:47;6.43;;;3.03;;
76846;SDS011;65813;49.546;8.644;2023-02-23T15:59:48;5.93;;;3.15;;
76846;SDS011;65813;49.546;8.644;2023-02-23T16:08:05;7.63;;;3.42;;
76846;SDS011;65813;49.546;8.644;2023-02-23T16:12:27;6.53;;;3.58;;
76846;SDS011;65813;49.546;8.644;2023-02-23T16:16:33;6.82;;;3.75;;
76846;SDS011;65813;49.546;8.644;2023-02-23T16:20:35;6.97;;;3.60;;
76846;SDS011;65813;49.546;8.644;2023-02-23T16:24:41;7.18;;;3.70;;
76846;SDS011;65813;49.546;8.644;2023-02-23T16:28:42;6.73;;;3.80;;
76846;SDS011;65813;49.546;8.644;2023-02-23T16:32:44;9.43;;;4.65;;
76846;SDS011;65813;49.546;8.644;2023-02-23T16:36:49;6.53;;;3.65;;
76846;SDS011;65813;49.546;8.644;2023-02-23T16:44:53;7.57;;;3.60;;
76846;SDS011;65813;49.546;8.644;2023-02-23T16:48:54;8.77;;;4.13;;
76846;SDS011;65813;49.546;8.644;2023-02-23T16:53:04;7.82;;;4.30;;
76846;SDS011;65813;49.546;8.644;2023-02-23T16:57:05;8.88;;;4.15;;
76846;SDS011;65813;49.546;8.644;2023-02-23T17:01:18;6.95;;;3.70;;
76846;SDS011;65813;49.546;8.644;2023-02-23T17:05:19;9.00;;;4.43;;
76846;SDS011;65813;49.546;8.644;2023-02-23T17:09:23;7.47;;;3.75;;
76846;SDS011;65813;49.546;8.644;2023-02-23T17:13:24;6.28;;;3.58;;
76846;SDS011;65813;49.546;8.644;2023-02-23T17:17:25;7.38;;;4.10;;
76846;SDS011;65813;49.546;8.644;2023-02-23T17:21:30;7.47;;;4.18;;
76846;SDS011;65813;49.546;8.644;2023-02-23T17:25:32;6.97;;;4.10;;
76846;SDS011;65813;49.546;8.644;2023-02-23T17:29:33;11.77;;;6.53;;
76846;SDS011;65813;49.546;8.644;2023-02-23T17:33:33;12.32;;;6.32;;
76846;SDS011;65813;49.546;8.644;2023-02-23T17:37:35;12.90;;;6.65;;
76846;SDS011;65813;49.546;8.644;2023-02-23T17:41:38;12.23;;;6.00;;
76846;SDS011;65813;49.546;8.644;2023-02-23T17:45:39;14.18;;;6.75;;
76846;SDS011;65813;49.546;8.644;2023-02-23T17:49:39;12.37;;;7.07;;
76846;SDS011;65813;49.546;8.644;2023-02-23T17:53:40;11.23;;;6.27;;
76846;SDS011;65813;49.546;8.644;2023-02-23T17:57:41;10.25;;;5.43;;
76846;SDS011;65813;49.546;8.644;2023-02-23T18:01:45;8.38;;;4.65;;
76846;SDS011;65813;49.546;8.644;2023-02-23T18:05:48;7.70;;;3.90;;
76846;SDS011;65813;49.546;8.644;2023-02-23T18:09:48;7.65;;;3.90;;
76846;SDS011;65813;49.546;8.644;2023-02-23T18:13:49;8.90;;;5.22;;
76846;SDS011;65813;49.546;8.644;2023-02-23T18:17:50;9.40;;;5.10;;
76846;SDS011;65813;49.546;8.644;2023-02-23T18:21:56;9.10;;;4.88;;
76846;SDS011;65813;49.546;8.644;2023-02-23T18:26:04;9.57;;;5.07;;
76846;SDS011;65813;49.546;8.644;2023-02-23T18:30:09;8.32;;;5.15;;
76846;SDS011;65813;49.546;8.644;2023-02-23T18:34:10;12.32;;;6.05;;
76846;SDS011;65813;49.546;8.644;2023-02-23T18:38:11;9.85;;;5.15;;
76846;SDS011;65813;49.546;8.644;2023-02-23T18:42:12;20.65;;;11.85;;
76846;SDS011;65813;49.546;8.644;2023-02-23T18:46:16;15.57;;;9.18;;
76846;SDS011;65813;49.546;8.644;2023-02-23T18:50:17;12.80;;;7.22;;
76846;SDS011;65813;49.546;8.644;2023-02-23T18:54:19;12.18;;;6.90;;
76846;SDS011;65813;49.546;8.644;2023-02-23T18:58:21;13.00;;;6.38;;
76846;SDS011;65813;49.546;8.644;2023-02-23T19:02:21;10.83;;;6.33;;
76846;SDS011;65813;49.546;8.644;2023-02-23T19:06:24;15.10;;;6.85;;
76846;SDS011;65813;49.546;8.644;2023-02-23T19:10:25;14.43;;;8.05;;
76846;SDS011;65813;49.546;8.644;2023-02-23T19:14:27;14.43;;;7.35;;
76846;SDS011;65813;49.546;8.644;2023-02-23T19:18:27;14.47;;;7.63;;
76846;SDS011;65813;49.546;8.644;2023-02-23T19:22:28;13.33;;;6.77;;
76846;SDS011;65813;49.546;8.644;2023-02-23T19:26:29;13.23;;;7.18;;
76846;SDS011;65813;49.546;8.644;2023-02-23T19:30:30;12.88;;;5.95;;
76846;SDS011;65813;49.546;8.644;2023-02-23T19:34:31;13.87;;;7.30;;
76846;SDS011;65813;49.546;8.644;2023-02-23T19:38:31;13.00;;;7.33;;
76846;SDS011;65813;49.546;8.644;2023-02-23T19:42:32;13.82;;;7.40;;
76846;SDS011;65813;49.546;8.644;2023-02-23T19:46:34;15.68;;;7.70;;
76846;SDS011;65813;49.546;8.644;2023-02-23T19:50:35;15.23;;;8.13;;
76846;SDS011;65813;49.546;8.644;2023-02-23T19:54:35;14.63;;;7.67;;
76846;SDS011;65813;49.546;8.644;2023-02-23T19:58:37;16.25;;;8.10;;
76846;SDS011;65813;49.546;8.644;2023-02-23T20:02:38;13.27;;;7.50;;
76846;SDS011;65813;49.546;8.644;2023-02-23T20:06:43;15.20;;;7.90;;
76846;SDS011;65813;49.546;8.644;2023-02-23T20:10:45;18.05;;;8.73;;
76846;SDS011;65813;49.546;8.644;2023-02-23T20:14:46;13.95;;;8.38;;
76846;SDS011;65813;49.546;8.644;2023-02-23T20:18:48;15.63;;;8.30;;
76846;SDS011;65813;49.546;8.644;2023-02-23T20:22:50;14.67;;;8.27;;
76846;SDS011;65813;49.546;8.644;2023-02-23T20:26:51;15.40;;;8.00;;
76846;SDS011;65813;49.546;8.644;2023-02-23T20:30:55;16.15;;;8.50;;
76846;SDS011;65813;49.546;8.644;2023-02-23T20:34:56;18.08;;;8.82;;
76846;SDS011;65813;49.546;8.644;2023-02-23T20:38:59;13.85;;;8.00;;
76846;SDS011;65813;49.546;8.644;2023-02-23T20:42:59;14.23;;;8.07;;
76846;SDS011;65813;49.546;8.644;2023-02-23T20:47:00;18.20;;;8.67;;
76846;SDS011;65813;49.546;8.644;2023-02-23T20:51:00;17.43;;;8.60;;
76846;SDS011;65813;49.546;8.644;2023-02-23T20:55:02;17.75;;;8.75;;
76846;SDS011;65813;49.546;8.644;2023-02-23T20:59:04;16.60;;;9.32;;
76846;SDS011;65813;49.546;8.644;2023-02-23T21:03:05;17.38;;;9.52;;
76846;SDS011;65813;49.546;8.644;2023-02-23T21:07:06;14.97;;;8.67;;
76846;SDS011;65813;49.546;8.644;2023-02-23T21:11:06;19.23;;;9.33;;
76846;SDS011;65813;49.546;8.644;2023-02-23T21:15:07;16.90;;;8.25;;
76846;SDS011;65813;49.546;8.644;2023-02-23T21:19:08;16.92;;;9.07;;
76846;SDS011;65813;49.546;8.644;2023-02-23T21:23:09;19.17;;;9.95;;
76846;SDS011;65813;49.546;8.644;2023-02-23T21:27:10;20.77;;;11.57;;
76846;SDS011;65813;49.546;8.644;2023-02-23T21:31:13;18.30;;;10.20;;
76846;SDS011;65813;49.546;8.644;2023-02-23T21:35:13;20.63;;;10.70;;
76846;SDS011;65813;49.546;8.644;2023-02-23T21:39:14;17.75;;;9.75;;
76846;SDS011;65813;49.546;8.644;2023-02-23T21:43:15;22.23;;;10.87;;
76846;SDS011;65813;49.546;8.644;2023-02-23T21:47:15;20.75;;;10.10;;
76846;SDS011;65813;49.546;8.644;2023-02-23T21:51:15;18.20;;;10.07;;
76846;SDS011;65813;49.546;8.644;2023-02-23T21:55:16;20.17;;;10.10;;
76846;SDS011;65813;49.546;8.644;2023-02-23T21:59:19;18.45;;;9.88;;
76846;SDS011;65813;49.546;8.644;2023-02-23T22:03:20;20.53;;;10.40;;
76846;SDS011;65813;49.546;8.644;2023-02-23T22:07:22;17.70;;;9.55;;
76846;SDS011;65813;49.546;8.644;2023-02-23T22:11:23;17.83;;;9.50;;
